Latest Weather Observations for Lochington

IDQ60801

Issued at 7:52 pm EST Sunday 29 March 2020 (issued every 10 minutes, with the page automatically refreshed every 10 minutes)

About weather observations | Map of weather stations | Latest weather observations for QLD | Other Formats
Station Details ID: 035139 Name: LOCHINGTON Lat: -23.94 Lon: 147.53 Height: 267.19 m
Data from the previous 72 hours. | See also: Recent months at Lochington
Date/Time
EST
Temp
°C
App
Temp
°C
Dew
Point
°C
Rel
Hum
%
Delta-T
°C
Wind Press
QNH
hPa
Press
MSL
hPa
Rain since
9am
mm
Dir  Spd
km/h
Gust
km/h
Spd
kts
Gust
kts
29/07:30pm 28.1 27.8 13.2 39 8.9 NE 7 9 4 5 1014.9 1013.3 0.0
29/07:00pm 28.7 28.3 13.0 38 9.4 ENE 7 11 4 6 1014.6 1013.0 0.0
29/06:30pm 28.8 28.2 12.2 35 9.8 E 7 9 4 5 1014.3 1012.7 0.0
29/06:00pm 30.1 29.6 12.5 34 10.5 ENE 7 11 4 6 1014.0 1012.4 0.0
29/05:30pm 31.1 29.8 12.5 32 11.1 E 11 17 6 9 1013.7 1012.1 0.0
29/05:00pm 31.4 30.2 12.7 32 11.2 E 11 19 6 10 1013.5 1011.9 0.0
29/04:30pm 31.7 30.9 13.0 32 11.3 E 9 20 5 11 1013.3 1011.7 0.0
29/04:00pm 31.6 30.0 12.9 32 11.3 E 13 22 7 12 1013.3 1011.7 0.0
29/03:30pm 32.0 31.5 13.7 33 11.2 ENE 9 17 5 9 1013.4 1011.8 0.0
29/03:00pm 30.9 30.9 13.7 35 10.5 E 6 15 3 8 1013.8 1012.2 0.0
29/02:30pm 31.4 30.1 13.6 33 10.8 ENE 13 24 7 13 1014.1 1012.5 0.0
29/02:00pm 31.7 31.2 14.8 36 10.5 NE 11 22 6 12 1014.3 1012.7 0.0
29/01:30pm 31.2 30.4 15.2 38 10.0 E 13 28 7 15 1014.6 1013.0 0.0
29/01:00pm 31.0 30.5 15.0 38 9.9 E 11 20 6 11 1015.3 1013.7 0.0
29/12:30pm 30.1 30.7 15.4 41 9.1 E 6 15 3 8 1015.9 1014.4 0.0
29/12:00pm 29.8 29.8 16.2 43 8.5 NE 11 20 6 11 1016.4 1014.8 0.0
29/11:30am 29.1 29.1 15.2 42 8.6 NE 9 24 5 13 1016.8 1015.2 0.0
29/11:00am 28.1 27.5 15.7 46 7.7 NE 13 20 7 11 1017.0 1015.4 0.0
29/10:30am 27.9 28.0 16.5 50 7.2 ENE 11 20 6 11 1017.3 1015.7 0.0
29/10:00am 27.5 27.5 17.1 53 6.6 ENE 13 37 7 20 1017.5 1015.9 0.0
29/09:30am 24.9 25.2 16.9 61 5.0 NE 11 19 6 10 1017.7 1016.1 0.0
29/09:00am 24.8 24.3 17.0 62 4.9 ENE 15 20 8 11 1017.6 1016.0 0.0
29/08:30am 23.9 24.1 17.6 68 4.0 ENE 13 22 7 12 1017.5 1015.9 0.0
29/08:00am 23.2 23.8 17.7 71 3.5 ENE 11 17 6 9 1017.4 1015.8 0.0
29/07:30am 22.5 24.0 18.1 76 2.8 ENE 7 11 4 6 1017.2 1015.6 0.0
29/07:00am 20.9 23.0 18.1 84 1.8 ENE 4 6 2 3 1017.0 1015.4 0.0
29/06:30am 19.9 21.3 17.3 85 1.6 ENE 6 6 3 3 1016.7 1015.1 0.0
29/06:00am 20.2 21.8 17.8 86 1.5 ENE 6 7 3 4 1016.3 1014.7 0.0
29/05:30am 19.5 20.7 16.9 85 1.6 E 6 7 3 4 1015.8 1014.3 0.0
29/05:00am 20.3 22.1 17.3 83 1.9 ESE 4 6 2 3 1015.9 1014.4 0.0
29/04:30am 20.7 22.1 17.9 84 1.8 E 7 11 4 6 1015.5 1013.9 0.0
29/04:00am 20.4 22.3 16.6 79 2.3 ESE 2 4 1 2 1015.5 1013.9 0.0
29/03:30am 21.3 22.7 17.3 78 2.5 ENE 6 7 3 4 1015.3 1013.7 0.0
29/03:00am 21.6 22.9 17.0 75 2.8 NE 6 7 3 4 1015.3 1013.7 0.0
29/02:30am 22.3 23.4 17.2 73 3.2 ENE 7 13 4 7 1015.6 1014.1 0.0
29/02:00am 22.8 23.3 17.5 72 3.3 NE 11 17 6 9 1015.7 1014.2 0.0
29/01:30am 22.9 23.6 17.1 70 3.6 ENE 9 15 5 8 1015.8 1014.3 0.0
29/01:00am 23.3 23.8 16.6 66 4.1 NE 9 20 5 11 1016.0 1014.5 0.0
29/12:30am 23.5 23.9 16.3 64 4.4 ENE 9 17 5 9 1016.3 1014.7 0.0
29/12:00am 23.4 23.3 14.9 59 5.1 ENE 9 13 5 7 1016.2 1014.6 0.0
 
Date/Time
EST
Temp
°C
App
Temp
°C
Dew
Point
°C
Rel
Hum
%
Delta-T
°C
Wind Press
QNH
hPa
Press
MSL
hPa
Rain since
9am
mm
Dir  Spd
km/h
Gust
km/h
Spd
kts
Gust
kts
28/11:30pm 24.0 24.5 15.5 59 5.2 ENE 7 13 4 7 1016.2 1014.6 0.0
28/11:00pm 23.5 25.0 15.8 62 4.7 ENE 2 6 1 3 1016.4 1014.8 0.0
28/10:30pm 23.2 24.9 15.3 61 4.8 CALM 0 0 0 0 1016.4 1014.8 0.0
28/10:00pm 23.7 25.5 15.5 60 5.0 CALM 0 2 0 1 1016.4 1014.8 0.0
28/09:30pm 24.6 25.2 15.8 58 5.4 E 7 11 4 6 1016.4 1014.8 0.0
28/09:00pm 24.1 24.7 15.3 58 5.3 E 6 6 3 3 1016.2 1014.6 0.0
28/08:30pm 24.7 25.1 15.3 56 5.7 E 7 9 4 5 1015.7 1014.2 0.0
28/08:00pm 25.9 26.4 15.6 53 6.3 E 7 9 4 5 1015.6 1014.1 0.0
28/07:30pm 26.7 26.5 15.7 51 6.8 ENE 11 17 6 9 1015.2 1013.6 0.0
28/07:00pm 27.2 26.6 15.6 49 7.2 E 13 20 7 11 1014.7 1013.1 0.0
28/06:30pm 27.9 26.0 15.2 46 7.8 ENE 19 30 10 16 1014.4 1012.8 0.0
28/06:00pm 29.1 28.2 13.7 38 9.3 E 11 19 6 10 1014.2 1012.6 0.0
28/05:30pm 29.9 28.2 13.6 36 9.9 E 15 22 8 12 1013.9 1012.3 0.0
28/05:00pm 30.4 28.6 13.2 35 10.4 E 15 24 8 13 1013.7 1012.1 0.0
28/04:30pm 30.8 29.7 13.1 34 10.7 E 11 20 6 11 1013.5 1011.9 0.0
28/04:00pm 29.8 28.4 13.5 36 9.8 ENE 13 24 7 13 1013.7 1012.1 0.0
28/03:30pm 30.7 29.3 13.5 35 10.4 ESE 13 24 7 13 1014.0 1012.4 0.0
28/03:00pm 29.8 28.4 13.5 36 9.8 E 13 24 7 13 1014.4 1012.8 0.0
28/02:30pm 30.9 29.4 14.1 36 10.3 E 15 28 8 15 1014.6 1013.0 0.0
28/02:00pm 30.3 29.2 14.4 38 9.7 E 13 32 7 17 1014.9 1013.3 0.0
28/01:30pm 29.6 28.3 13.8 38 9.6 ESE 13 22 7 12 1015.3 1013.7 0.0
28/01:00pm 29.9 28.2 14.8 39 9.3 ENE 17 28 9 15 1015.8 1014.3 0.0
28/12:30pm 29.1 28.2 14.9 42 8.7 E 13 22 7 12 1016.4 1014.8 0.0
28/12:00pm 28.0 26.9 15.3 46 7.8 E 15 26 8 14 1017.0 1015.4 0.0
28/11:30am 28.4 28.7 16.0 47 7.7 E 9 19 5 10 1017.6 1016.0 0.0
28/11:00am 27.5 26.7 15.2 47 7.5 E 13 24 7 13 1017.9 1016.3 0.0
28/10:30am 27.3 26.9 15.3 48 7.4 ENE 11 19 6 10 1018.3 1016.7 0.0
28/10:00am 26.3 25.1 15.0 49 6.9 ENE 15 26 8 14 1018.6 1017.0 0.0
28/09:30am 26.1 25.6 15.8 53 6.4 E 13 20 7 11 1018.6 1017.0 0.0
28/09:00am 24.7 23.3 15.6 57 5.6 E 17 26 9 14 1018.4 1016.8 0.0
28/08:30am 24.3 23.5 16.0 60 5.1 ESE 15 24 8 13 1018.2 1016.6 0.0
28/08:00am 23.5 23.2 16.5 65 4.3 ESE 13 20 7 11 1018.1 1016.5 0.0
28/07:30am 22.8 23.1 17.0 70 3.6 ESE 11 17 6 9 1017.8 1016.2 0.0
28/07:00am 21.5 24.1 17.5 78 2.5 CALM 0 0 0 0 1017.5 1015.9 0.0
28/06:30am 19.8 22.0 16.4 81 2.1 CALM 0 0 0 0 1017.3 1015.7 0.0
28/06:00am 20.0 22.2 16.6 81 2.1 CALM 0 0 0 0 1017.1 1015.5 0.0
28/05:30am 20.5 22.4 16.7 79 2.3 ESE 2 4 1 2 1016.8 1015.2 0.0
28/05:00am 20.5 22.2 16.3 77 2.6 E 2 4 1 2 1016.8 1015.2 0.0
28/04:30am 20.9 21.9 16.3 75 2.8 E 6 7 3 4 1016.5 1014.9 0.0
28/04:00am 21.4 22.5 16.6 74 2.9 ENE 6 7 3 4 1016.5 1014.9 0.0
28/03:30am 21.9 22.4 16.6 72 3.3 ENE 9 13 5 7 1016.5 1014.9 0.0
28/03:00am 22.4 22.6 16.7 70 3.5 NE 11 17 6 9 1016.6 1015.0 0.0
28/02:30am 22.5 23.1 16.8 70 3.5 NE 9 17 5 9 1016.7 1015.1 0.0
28/02:00am 23.2 22.4 17.0 68 3.9 ENE 17 28 9 15 1017.0 1015.4 0.0
28/01:30am 23.2 22.8 17.2 69 3.7 ENE 15 24 8 13 1017.2 1015.6 0.0
28/01:00am 23.2 23.4 17.7 71 3.5 E 13 19 7 10 1017.5 1015.9 0.0
28/12:30am 22.6 23.4 18.2 76 2.8 E 11 15 6 8 1017.5 1015.9 0.0
28/12:00am 23.0 23.9 18.3 75 3.0 E 11 17 6 9 1017.5 1015.9 0.0
 
Date/Time
EST
Temp
°C
App
Temp
°C
Dew
Point
°C
Rel
Hum
%
Delta-T
°C
Wind Press
QNH
hPa
Press
MSL
hPa
Rain since
9am
mm
Dir  Spd
km/h
Gust
km/h
Spd
kts
Gust
kts
27/11:30pm 23.2 22.8 18.1 73 3.2 E 17 26 9 14 1017.7 1016.1 0.0
27/11:00pm 24.2 23.1 17.4 65 4.3 E 19 28 10 15 1017.6 1016.0 0.0
27/10:30pm 25.4 24.9 16.8 59 5.4 E 15 20 8 11 1017.5 1015.9 0.0
27/10:00pm 27.1 26.7 16.1 51 6.8 E 13 26 7 14 1017.2 1015.6 0.0
27/09:30pm 26.3 27.1 14.7 48 7.0 E 4 6 2 3 1017.0 1015.4 0.0
27/09:00pm 26.8 27.1 14.5 46 7.4 ESE 6 7 3 4 1016.8 1015.2 0.0
27/08:30pm 27.4 27.1 14.4 45 7.9 ESE 9 13 5 7 1016.4 1014.8 0.0
27/08:00pm 27.4 27.4 13.7 43 8.2 ENE 6 9 3 5 1016.0 1014.5 0.0
27/07:30pm 27.3 27.1 13.6 43 8.2 E 7 9 4 5 1015.4 1013.8 0.0
27/07:00pm 28.2 27.7 13.7 41 8.7 E 9 15 5 8 1015.0 1013.4 0.0
27/06:30pm 28.9 27.8 13.2 38 9.4 E 11 19 6 10 1014.5 1012.9 0.0
27/06:00pm 30.1 28.6 13.0 35 10.3 E 13 19 7 10 1014.2 1012.6 0.0
27/05:30pm 31.1 29.2 12.9 32 10.9 E 15 22 8 12 1014.1 1012.5 0.0
27/05:00pm 31.1 29.9 12.9 32 10.9 E 11 19 6 10 1014.1 1012.5 0.0
27/04:30pm 31.6 29.3 12.9 32 11.3 E 17 26 9 14 1014.0 1012.4 0.0
27/04:00pm 31.2 29.7 13.0 33 11.0 E 13 24 7 13 1014.0 1012.4 0.0
27/03:30pm 31.8 31.2 13.5 32 11.1 E 9 17 5 9 1014.2 1012.6 0.0
27/03:00pm 30.6 28.7 13.0 34 10.6 E 15 28 8 15 1014.5 1012.9 0.0
27/02:30pm 31.6 30.5 14.3 35 10.6 E 13 24 7 13 1014.8 1013.2 0.0
27/02:00pm 31.2 30.0 13.9 35 10.6 E 13 24 7 13 1015.4 1013.8 0.0
27/01:30pm 31.6 31.2 15.1 36 10.3 ENE 11 19 6 10 1015.8 1014.3 0.0
27/01:00pm 30.8 29.9 14.8 37 9.9 E 13 24 7 13 1016.5 1014.9 0.0
27/12:30pm 29.7 28.5 15.0 40 9.1 ENE 15 28 8 15 1017.0 1015.4 0.0
27/12:00pm 30.1 29.4 15.4 41 9.1 ENE 13 24 7 13 1017.4 1015.8 0.0
27/11:30am 28.8 27.6 16.0 45 8.0 E 17 26 9 14 1017.9 1016.3 0.0
27/11:00am 29.1 29.1 16.3 46 8.0 ENE 11 19 6 10 1018.3 1016.7 0.0
27/10:30am 27.7 26.4 15.7 48 7.4 ENE 17 28 9 15 1018.7 1017.1 0.0
27/10:00am 27.2 27.3 16.5 52 6.7 ENE 11 19 6 10 1019.0 1017.5 0.0
27/09:30am 25.8 25.4 16.1 55 6.0 ENE 13 19 7 10 1019.2 1017.7 0.0
27/09:00am 25.7 25.9 16.8 58 5.6 ENE 11 17 6 9 1019.2 1017.7 0.0
27/08:30am 23.9 24.7 16.4 63 4.6 E 7 11 4 6 1019.3 1017.8 0.0
27/08:00am 23.3 24.2 16.6 66 4.1 ENE 7 13 4 7 1019.0 1017.5 0.0
27/07:30am 22.5 23.7 16.8 70 3.5 ENE 6 9 3 5 1018.7 1017.1 0.0
27/07:00am 20.4 22.3 15.8 75 2.8 CALM 0 0 0 0 1018.4 1016.8 0.0
27/06:30am 18.9 20.4 14.6 76 2.5 CALM 0 0 0 0 1018.2 1016.6 0.0
27/06:00am 19.4 21.1 15.3 77 2.4 CALM 0 0 0 0 1018.0 1016.4 0.0
27/05:30am 19.2 19.6 14.7 75 2.7 E 6 6 3 3 1017.7 1016.1 0.0
27/05:00am 19.9 20.7 14.9 73 3.0 E 4 6 2 3 1017.3 1015.7 0.0
27/04:30am 19.9 20.3 14.7 72 3.1 E 6 7 3 4 1017.0 1015.4 0.0
27/04:00am 20.1 20.7 14.2 69 3.5 E 4 6 2 3 1016.8 1015.2 0.0
27/03:30am 21.0 21.2 14.2 65 4.0 E 6 9 3 5 1016.6 1015.0 0.0
27/03:00am 21.7 21.4 14.4 63 4.3 ENE 9 13 5 7 1016.4 1014.8 0.0
27/02:30am 22.0 21.4 13.6 59 4.9 ENE 9 13 5 7 1016.5 1014.9 0.0
27/02:00am 21.9 21.6 13.3 58 5.0 E 7 11 4 6 1016.7 1015.1 0.0
27/01:30am 21.8 21.4 12.9 57 5.1 E 7 9 4 5 1016.8 1015.2 0.0
27/01:00am 21.6 21.3 12.7 57 5.1 E 6 9 3 5 1016.9 1015.3 0.0
27/12:30am 22.6 22.3 12.8 54 5.7 E 6 6 3 3 1016.9 1015.3 0.0
27/12:00am 23.6 23.7 13.8 54 5.8 ENE 6 7 3 4 1016.8 1015.2 0.0
 
Date/Time
EST
Temp
°C
App
Temp
°C
Dew
Point
°C
Rel
Hum
%
Delta-T
°C
Wind Press
QNH
hPa
Press
MSL
hPa
Rain since
9am
mm
Dir  Spd
km/h
Gust
km/h
Spd
kts
Gust
kts
26/11:30pm 23.0 23.6 13.2 54 5.7 ESE 2 4 1 2 1016.8 1015.2 0.0
26/11:00pm 23.3 24.1 12.6 51 6.2 CALM 0 2 0 1 1016.9 1015.3 0.0
26/10:30pm 24.9 25.1 13.1 48 6.9 NE 4 6 2 3 1017.0 1015.4 0.0
26/10:00pm 25.4 25.1 13.3 47 7.1 ENE 7 11 4 6 1017.0 1015.4 0.0
26/09:30pm 25.8 25.5 13.3 46 7.4 ENE 7 11 4 6 1017.1 1015.5 0.0
26/09:00pm 25.2 25.0 13.1 47 7.1 ENE 6 6 3 3 1016.8 1015.2 0.0
26/08:30pm 25.9 26.7 12.7 44 7.7 CALM 0 0 0 0 1016.7 1015.1 0.0
26/08:00pm 26.8 26.8 12.5 41 8.4 ENE 4 7 2 4 1016.4 1014.8 0.0

Other formats

Comma delimited format used in spreadsheet applications
http://www.bom.gov.au/fwo/IDQ60801/IDQ60801.94399.axf

JavaScript Object Notation format (JSON) in row-major order
http://www.bom.gov.au/fwo/IDQ60801/IDQ60801.94399.json

Data quality

Most of these data are generated automatically and are frequently updated. Quality checks on data are not normally performed. It is possible for incorrect values to appear. Refer to information at About Latest Weather Observations and please check the disclaimer before using these data.